Providence Village's Hourly Summary for Tuesday, March 14, 2017
Hour Temp
(f)
RH
(%)
Solar Rad.
(MJ/m2)
Rainfall
(in)
Wind
(mph)
3/14/2017 12:00 AM 43 44 0 0 3.78
3/14/2017 1:00 AM 41 48 0 0 2.87
3/14/2017 2:00 AM 39 53 0 0 0.63
3/14/2017 3:00 AM 37 62 0 0 1.35
3/14/2017 4:00 AM 36 65 0 0 1.28
3/14/2017 5:00 AM 35 69 0 0 1.5
3/14/2017 6:00 AM 35 71 0 0 1.06
3/14/2017 7:00 AM 33 72 0 0 1.29
3/14/2017 8:00 AM 32 80 0.02 0 0.28
3/14/2017 9:00 AM 35 70 0.43 0 2.17
3/14/2017 10:00 AM 41 52 1.11 0 5.07
3/14/2017 11:00 AM 45 41 1.86 0 5.24
3/14/2017 12:00 PM 49 38 2.41 0 3.8
3/14/2017 1:00 PM 50 36 2.83 0 4.11
3/14/2017 2:00 PM 53 33 2.97 0 4.46
3/14/2017 3:00 PM 55 31 2.88 0 5.25
3/14/2017 4:00 PM 58 27 2.66 0 3.65
3/14/2017 5:00 PM 61 26 2 0 3.24
3/14/2017 6:00 PM 62 25 1.26 0 2.39
3/14/2017 7:00 PM 59 29 0.22 0 3.59
3/14/2017 8:00 PM 57 34 0.04 0 4.53
3/14/2017 9:00 PM 54 38 0 0 3.98
3/14/2017 10:00 PM 51 43 0 0 4.67
3/14/2017 11:00 PM 49 51 0 0 2.8
Data Summary 46 47 20.69 0.00 3.04